Time;durP1;ratioP1;P1;durP2;ratioP2;P2;SDS_P1;SDS_P2;PMS_P1;PMS_P2;Temp;Humidity;BMP_temperature;BMP_pressure;BME280_temperature;BME280_humidity;BME280_pressure;Samples;Min_cycle;Max_cycle;Signal;HPM_P1;HPM_P2
2023/04/22 00:00:45;;;;;;;;;;;;;;;13.13;53.22;99710.63;4446401;32;34158;-83
2023/04/22 00:03:14;;;;;;;;;;;;;;;12.96;53.49;99711.53;4437295;32;32894;-83
2023/04/22 00:05:43;;;;;;;;;;;;;;;12.16;56.53;99713.16;4413704;32;32070;-83
2023/04/22 00:08:11;;;;;;;;;;;;;;;12.38;55.93;99714.66;4425799;32;34163;-83
2023/04/22 00:10:39;;;;;;;;;;;;;;;12.29;56.36;99711.56;4423369;32;33371;-83
2023/04/22 00:13:06;;;;;;;;;;;;;;;12.28;56.70;99714.28;4415500;32;32893;-83
2023/04/22 00:15:34;;;;;;;;;;;;;;;12.20;57.13;99716.47;4411751;32;32686;-83
2023/04/22 00:18:06;;;;;;;;;;;;;;;12.68;55.76;99717.50;4428365;32;33000;-82
2023/04/22 00:20:35;;;;;;;;;;;;;;;12.86;55.28;99713.84;4427722;32;34447;-83
2023/04/22 00:23:04;;;;;;;;;;;;;;;12.95;54.79;99716.00;4422050;32;33547;-83
2023/04/22 00:25:32;;;;;;;;;;;;;;;12.68;55.68;99706.91;4423531;32;31926;-83
2023/04/22 00:28:00;;;;;;;;;;;;;;;12.77;55.62;99706.38;4420779;32;34387;-82
2023/04/22 00:30:28;;;;;;;;;;;;;;;12.81;55.60;99714.09;4426480;32;34438;-82
2023/04/22 00:32:57;;;;;;;;;;;;;;;12.70;56.00;99710.31;4424454;32;33243;-82
2023/04/22 00:35:24;;;;;;;;;;;;;;;12.90;55.58;99710.09;4423610;32;33109;-81
2023/04/22 00:37:52;;;;;;;;;;;;;;;12.84;55.83;99718.37;4424155;32;33619;-81
2023/04/22 00:40:20;;;;;;;;;;;;;;;12.87;56.01;99707.62;4426570;32;33835;-81
2023/04/22 00:42:48;;;;;;;;;;;;;;;12.95;55.91;99708.03;4423237;32;34266;-84
2023/04/22 00:45:19;;;;;;;;;;;;;;;12.95;55.91;99705.38;4417175;32;33686;-83
2023/04/22 00:47:47;;;;;;;;;;;;;;;12.88;56.37;99711.97;4422160;32;33484;-83
2023/04/22 00:50:15;;;;;;;;;;;;;;;12.88;56.25;99709.31;4412690;32;33854;-84
2023/04/22 00:52:43;;;;;;;;;;;;;;;13.05;55.74;99709.28;4424584;32;32703;-84
2023/04/22 00:55:11;;;;;;;;;;;;;;;12.97;55.88;99707.97;4414679;32;33057;-84
2023/04/22 00:57:39;;;;;;;;;;;;;;;13.06;55.46;99703.03;4418636;32;32771;-84
2023/04/22 01:00:08;;;;;;;;;;;;;;;13.03;55.61;99700.53;4424600;32;33161;-84
2023/04/22 01:02:37;;;;;;;;;;;;;;;13.05;55.59;99706.63;4413301;32;34514;-84
2023/04/22 01:05:08;;;;;;;;;;;;;;;13.04;55.52;99702.22;4428336;32;33651;-84
2023/04/22 01:07:39;;;;;;;;;;;;;;;13.15;54.55;99706.06;4442518;32;32687;-84
2023/04/22 01:10:07;;;;;;;;;;;;;;;13.37;53.62;99705.78;4438151;32;33602;-85
2023/04/22 01:12:35;;;;;;;;;;;;;;;13.38;53.42;99708.31;4443646;32;33650;-84
2023/04/22 01:15:03;;;;;;;;;;;;;;;13.27;53.90;99708.09;4436349;32;33006;-84
2023/04/22 01:17:34;;;;;;;;;;;;;;;13.21;54.52;99716.38;4444348;32;33378;-84
2023/04/22 01:20:08;;;;;;;;;;;;;;;13.23;54.69;99711.84;4435934;32;34246;-84
2023/04/22 01:22:39;;;;;;;;;;;;;;;13.19;54.83;99710.28;4441324;32;34244;-84
2023/04/22 01:25:08;;;;;;;;;;;;;;;13.19;54.85;99720.88;4435525;32;32503;-84
2023/04/22 01:27:37;;;;;;;;;;;;;;;13.19;54.75;99723.53;4442272;32;33019;-84
2023/04/22 01:30:05;;;;;;;;;;;;;;;13.08;54.59;99721.47;4439636;32;34292;-84
2023/04/22 01:32:34;;;;;;;;;;;;;;;12.87;55.07;99728.81;4426502;32;33187;-83
2023/04/22 01:35:02;;;;;;;;;;;;;;;13.00;54.91;99724.53;4439400;32;32342;-83
2023/04/22 01:37:30;;;;;;;;;;;;;;;13.00;54.87;99721.88;4418482;32;32895;-83
2023/04/22 01:39:58;;;;;;;;;;;;;;;12.66;55.86;99719.37;4440735;32;34050;-83
2023/04/22 01:42:25;;;;;;;;;;;;;;;12.92;54.99;99726.78;4435377;32;34484;-83
2023/04/22 01:44:53;;;;;;;;;;;;;;;12.73;55.36;99726.91;4428158;32;32762;-83
2023/04/22 01:47:20;;;;;;;;;;;;;;;12.55;56.11;99723.44;4430149;32;32854;-83
2023/04/22 01:49:48;;;;;;;;;;;;;;;12.45;56.17;99726.66;4438841;32;33322;-83
2023/04/22 01:52:16;;;;;;;;;;;;;;;12.63;55.82;99728.34;4439225;32;33690;-83
2023/04/22 01:54:43;;;;;;;;;;;;;;;12.59;55.78;99728.59;4434354;32;33333;-83
2023/04/22 01:57:15;;;;;;;;;;;;;;;12.51;55.87;99723.69;4440357;32;33012;-83
2023/04/22 01:59:43;;;;;;;;;;;;;;;12.63;55.47;99724.81;4421703;32;33022;-82
2023/04/22 02:02:11;;;;;;;;;;;;;;;12.67;55.42;99718.41;4439492;32;34864;-82
2023/04/22 02:04:39;;;;;;;;;;;;;;;12.54;55.77;99720.88;4434441;32;31508;-83
2023/04/22 02:07:06;;;;;;;;;;;;;;;12.40;55.98;99716.31;4441030;32;33380;-83
2023/04/22 02:09:34;;;;;;;;;;;;;;;12.54;55.65;99720.88;4440826;32;34240;-83
2023/04/22 02:12:02;;;;;;;;;;;;;;;12.35;56.19;99718.34;4440781;32;33899;-83
2023/04/22 02:14:30;;;;;;;;;;;;;;;12.57;55.40;99713.63;4443304;32;32111;-83
2023/04/22 02:17:02;;;;;;;;;;;;;;;12.52;55.31;99718.28;4440529;32;33665;-83
2023/04/22 02:19:29;;;;;;;;;;;;;;;12.53;55.60;99714.75;4440973;32;33129;-83
2023/04/22 02:22:00;;;;;;;;;;;;;;;12.55;55.54;99718.16;4439182;32;34095;-84
2023/04/22 02:24:28;;;;;;;;;;;;;;;12.54;55.19;99716.44;4440568;32;32966;-83
2023/04/22 02:26:57;;;;;;;;;;;;;;;12.62;55.03;99715.16;4427275;32;32997;-83
2023/04/22 02:29:24;;;;;;;;;;;;;;;12.32;55.76;99718.50;4443408;32;33185;-83
2023/04/22 02:31:56;;;;;;;;;;;;;;;12.32;55.91;99707.91;4442401;32;34201;-83
2023/04/22 02:34:24;;;;;;;;;;;;;;;12.19;56.30;99709.47;4442215;32;33066;-84
2023/04/22 02:36:53;;;;;;;;;;;;;;;12.35;55.82;99715.72;4430192;32;33225;-83
2023/04/22 02:39:21;;;;;;;;;;;;;;;12.43;55.38;99708.19;4439827;32;34352;-84
2023/04/22 02:41:50;;;;;;;;;;;;;;;12.18;56.36;99721.00;4436268;32;33151;-83
2023/04/22 02:44:18;;;;;;;;;;;;;;;12.07;56.73;99720.72;4429598;32;33498;-82
2023/04/22 02:46:46;;;;;;;;;;;;;;;12.19;56.46;99715.62;4427483;32;34111;-82
2023/04/22 02:49:19;;;;;;;;;;;;;;;12.09;56.59;99718.84;4442520;32;34706;-82
2023/04/22 02:51:48;;;;;;;;;;;;;;;12.32;55.78;99715.84;4439519;32;33456;-82
2023/04/22 02:54:16;;;;;;;;;;;;;;;12.13;56.51;99707.16;4440807;32;33859;-82
2023/04/22 02:56:43;;;;;;;;;;;;;;;11.91;57.41;99716.16;4441098;32;33978;-82
2023/04/22 02:59:11;;;;;;;;;;;;;;;11.97;57.02;99715.88;4438133;32;34294;-82
2023/04/22 03:01:39;;;;;;;;;;;;;;;12.36;55.70;99712.13;4439691;32;34381;-82
2023/04/22 03:04:08;;;;;;;;;;;;;;;12.12;56.55;99708.09;4431753;32;32204;-82
2023/04/22 03:06:36;;;;;;;;;;;;;;;12.16;56.57;99712.31;4442220;32;34145;-82
2023/04/22 03:09:04;;;;;;;;;;;;;;;12.24;56.30;99713.59;4441979;32;34963;-82
2023/04/22 03:11:32;;;;;;;;;;;;;;;12.16;56.60;99714.94;4426327;32;33979;-82
2023/04/22 03:13:59;;;;;;;;;;;;;;;12.25;56.41;99722.41;4427288;32;33192;-82
2023/04/22 03:16:27;;;;;;;;;;;;;;;12.24;56.67;99718.03;4428157;32;33537;-82
2023/04/22 03:18:55;;;;;;;;;;;;;;;12.12;56.81;99724.81;4429794;32;33385;-82
2023/04/22 03:21:22;;;;;;;;;;;;;;;12.22;56.86;99711.97;4417676;32;32875;-82
2023/04/22 03:23:50;;;;;;;;;;;;;;;11.98;57.57;99717.59;4434307;32;32962;-82
2023/04/22 03:26:17;;;;;;;;;;;;;;;12.23;56.90;99721.63;4434351;32;32815;-83
2023/04/22 03:28:45;;;;;;;;;;;;;;;12.05;57.42;99728.72;4435514;32;33372;-83
2023/04/22 03:31:15;;;;;;;;;;;;;;;12.20;57.13;99729.72;4438802;32;33870;-82
2023/04/22 03:33:45;;;;;;;;;;;;;;;12.11;57.20;99728.41;4427074;32;33303;-83
2023/04/22 03:36:14;;;;;;;;;;;;;;;12.12;56.84;99724.81;4440681;32;34920;-82
2023/04/22 03:38:43;;;;;;;;;;;;;;;12.18;56.64;99728.94;4435662;32;34828;-84
2023/04/22 03:41:11;;;;;;;;;;;;;;;12.33;56.35;99724.66;4441702;32;33545;-83
2023/04/22 03:43:40;;;;;;;;;;;;;;;12.34;56.54;99739.59;4442410;32;33322;-83
2023/04/22 03:46:08;;;;;;;;;;;;;;;12.31;56.31;99730.03;4440239;32;34559;-83
2023/04/22 03:48:36;;;;;;;;;;;;;;;12.21;56.77;99742.87;4441458;32;34144;-83
2023/04/22 03:51:05;;;;;;;;;;;;;;;12.30;56.47;99733.63;4439959;32;33594;-83
2023/04/22 03:53:33;;;;;;;;;;;;;;;12.26;56.56;99738.22;4426766;32;33525;-83
2023/04/22 03:56:01;;;;;;;;;;;;;;;12.19;56.46;99735.94;4438106;32;33613;-83
2023/04/22 03:58:32;;;;;;;;;;;;;;;12.12;56.61;99735.41;4440799;32;34269;-83
2023/04/22 04:01:01;;;;;;;;;;;;;;;12.05;56.49;99742.78;4433947;32;34077;-83
2023/04/22 04:03:29;;;;;;;;;;;;;;;11.86;57.04;99742.00;4419959;32;33517;-83
2023/04/22 04:05:58;;;;;;;;;;;;;;;12.00;56.84;99742.16;4442606;32;34870;-83
2023/04/22 04:08:26;;;;;;;;;;;;;;;11.87;57.27;99733.16;4429123;32;34351;-83
2023/04/22 04:10:54;;;;;;;;;;;;;;;11.95;56.87;99738.06;4427843;32;33577;-83
2023/04/22 04:13:22;;;;;;;;;;;;;;;11.94;57.11;99742.50;4439995;32;33290;-83
2023/04/22 04:15:55;;;;;;;;;;;;;;;11.78;57.59;99738.88;4426005;32;33941;-83
2023/04/22 04:18:25;;;;;;;;;;;;;;;11.73;57.90;99738.25;4420907;32;32897;-82
2023/04/22 04:20:59;;;;;;;;;;;;;;;11.83;57.69;99739.53;4429978;32;34553;-83
2023/04/22 04:23:28;;;;;;;;;;;;;;;11.93;57.42;99746.06;4442741;32;33908;-81
2023/04/22 04:25:56;;;;;;;;;;;;;;;11.88;57.42;99748.09;4442569;32;33787;-83
2023/04/22 04:28:24;;;;;;;;;;;;;;;12.00;57.58;99749.25;4434297;32;33340;-83
2023/04/22 04:30:54;;;;;;;;;;;;;;;12.17;56.89;99749.28;4439656;32;32892;-83
2023/04/22 04:33:22;;;;;;;;;;;;;;;12.19;56.79;99749.19;4427550;32;32747;-83
2023/04/22 04:35:58;;;;;;;;;;;;;;;12.45;55.83;99748.72;4441010;32;33502;-82
2023/04/22 04:38:33;;;;;;;;;;;;;;;12.34;56.27;99755.47;4436879;32;34253;-82
2023/04/22 04:41:02;;;;;;;;;;;;;;;12.49;55.89;99752.91;4439843;32;34847;-83
2023/04/22 04:43:31;;;;;;;;;;;;;;;12.54;55.85;99760.62;4425200;32;33260;-84
2023/04/22 04:46:00;;;;;;;;;;;;;;;12.44;56.53;99757.59;4439136;32;32908;-83
2023/04/22 04:48:34;;;;;;;;;;;;;;;12.30;57.22;99765.41;4445202;32;33997;-84
2023/04/22 04:51:05;;;;;;;;;;;;;;;12.19;57.58;99771.22;4429572;32;32977;-83
2023/04/22 04:53:34;;;;;;;;;;;;;;;12.25;57.75;99772.72;4429349;32;32796;-84
2023/04/22 04:56:02;;;;;;;;;;;;;;;12.30;57.54;99768.91;4439219;32;33784;-82
2023/04/22 04:58:31;;;;;;;;;;;;;;;12.31;57.65;99772.41;4414572;32;34277;-83
2023/04/22 05:01:05;;;;;;;;;;;;;;;12.15;58.11;99774.09;4441001;32;33322;-82
2023/04/22 05:03:35;;;;;;;;;;;;;;;12.41;57.56;99768.34;4436499;32;33223;-82
2023/04/22 05:06:04;;;;;;;;;;;;;;;12.61;56.98;99771.72;4441948;32;33109;-81
2023/04/22 05:08:35;;;;;;;;;;;;;;;12.75;56.83;99774.50;4442234;32;33994;-81
2023/04/22 05:11:08;;;;;;;;;;;;;;;12.92;56.32;99774.47;4429964;32;32985;-82
2023/04/22 05:13:38;;;;;;;;;;;;;;;13.21;55.08;99772.03;4428707;32;31140;-82
2023/04/22 05:16:13;;;;;;;;;;;;;;;13.32;54.85;99767.88;4441779;32;33254;-81
2023/04/22 05:18:41;;;;;;;;;;;;;;;13.33;55.06;99774.88;4417739;32;32900;-83
2023/04/22 05:21:14;;;;;;;;;;;;;;;13.22;55.37;99776.44;4433128;32;33323;-83
2023/04/22 05:23:44;;;;;;;;;;;;;;;13.31;55.84;99773.28;4429806;32;33029;-83
2023/04/22 05:26:14;;;;;;;;;;;;;;;13.28;55.95;99774.28;4429395;32;33885;-83
2023/04/22 05:28:45;;;;;;;;;;;;;;;13.33;55.57;99776.69;4404625;32;33184;-83
2023/04/22 05:31:15;;;;;;;;;;;;;;;13.34;55.45;99775.78;4432930;32;33499;-82
2023/04/22 05:33:45;;;;;;;;;;;;;;;13.52;55.39;99771.22;4426704;32;33085;-82
2023/04/22 05:36:16;;;;;;;;;;;;;;;13.80;54.88;99767.84;4443254;32;33769;-82
2023/04/22 05:38:46;;;;;;;;;;;;;;;14.31;53.57;99771.06;4406980;32;33108;-82
2023/04/22 05:41:19;;;;;;;;;;;;;;;14.57;52.21;99765.09;4426154;32;34655;-82
2023/04/22 05:43:47;;;;;;;;;;;;;;;14.71;51.88;99766.88;4428170;32;32467;-82
2023/04/22 05:46:22;;;;;;;;;;;;;;;14.79;52.21;99767.25;4427234;32;35336;-82
2023/04/22 05:48:53;;;;;;;;;;;;;;;15.04;52.08;99771.91;4428667;32;34464;-81
2023/04/22 05:51:26;;;;;;;;;;;;;;;15.02;52.44;99767.66;4429797;32;33289;-82
2023/04/22 05:53:55;;;;;;;;;;;;;;;15.28;50.78;99768.66;4429950;32;33306;-81
2023/04/22 05:56:27;;;;;;;;;;;;;;;15.40;50.50;99770.53;4430902;32;33417;-82
2023/04/22 05:58:55;;;;;;;;;;;;;;;15.64;50.82;99769.94;4433556;32;34295;-83
2023/04/22 06:01:29;;;;;;;;;;;;;;;15.81;50.22;99772.37;4438777;32;33838;-82
2023/04/22 06:03:58;;;;;;;;;;;;;;;16.09;49.48;99768.69;4441333;32;34053;-82
2023/04/22 06:06:33;;;;;;;;;;;;;;;16.30;48.21;99772.59;4440861;32;33514;-82
2023/04/22 06:09:06;;;;;;;;;;;;;;;16.39;48.29;99771.13;4439807;32;32462;-82
2023/04/22 06:11:40;;;;;;;;;;;;;;;16.57;47.34;99771.69;4438808;32;34896;-82
2023/04/22 06:14:08;;;;;;;;;;;;;;;16.75;46.51;99772.22;4441675;32;32842;-82
2023/04/22 06:16:42;;;;;;;;;;;;;;;16.91;45.85;99767.53;4425958;32;33693;-82
2023/04/22 06:19:14;;;;;;;;;;;;;;;16.82;42.63;99773.53;4414819;32;33361;-82
2023/04/22 06:21:52;;;;;;;;;;;;;;;17.26;41.72;99774.84;4440686;32;33171;-81
2023/04/22 06:24:23;;;;;;;;;;;;;;;17.44;42.51;99783.34;4424739;32;32977;-82
2023/04/22 06:26:56;;;;;;;;;;;;;;;17.55;40.77;99775.41;4440934;32;33840;-82
2023/04/22 06:29:29;;;;;;;;;;;;;;;17.65;38.61;99787.97;4440194;32;36681;-82
2023/04/22 06:31:59;;;;;;;;;;;;;;;17.52;38.34;99779.19;4423070;32;33234;-84
2023/04/22 06:34:28;;;;;;;;;;;;;;;17.73;38.63;99776.78;4439877;32;32979;-83
2023/04/22 06:36:57;;;;;;;;;;;;;;;17.91;38.65;99779.91;4440452;32;33161;-83
2023/04/22 06:39:25;;;;;;;;;;;;;;;17.87;38.52;99778.41;4430359;32;32991;-83
2023/04/22 06:42:00;;;;;;;;;;;;;;;17.94;38.21;99776.12;4433311;32;32754;-83
2023/04/22 06:44:29;;;;;;;;;;;;;;;17.89;38.61;99776.47;4443592;32;32498;-83
2023/04/22 06:47:01;;;;;;;;;;;;;;;18.27;37.81;99775.41;4429165;32;32553;-84
2023/04/22 06:49:37;;;;;;;;;;;;;;;18.10;37.29;99785.56;4437345;32;33470;-82
2023/04/22 06:52:08;;;;;;;;;;;;;;;18.31;36.27;99776.91;4427848;32;32947;-83
2023/04/22 06:54:42;;;;;;;;;;;;;;;18.58;36.50;99785.47;4433565;32;33476;-82
2023/04/22 06:57:20;;;;;;;;;;;;;;;18.90;32.53;99779.50;4440351;32;34186;-83
2023/04/22 06:59:49;;;;;;;;;;;;;;;18.84;32.08;99774.59;4431234;32;33084;-83
2023/04/22 07:02:27;;;;;;;;;;;;;;;19.08;30.25;99771.81;4426268;32;33472;-83
2023/04/22 07:05:05;;;;;;;;;;;;;;;19.12;31.69;99774.13;4432361;32;33747;-83
2023/04/22 07:07:37;;;;;;;;;;;;;;;19.88;30.36;99768.91;4429597;32;33869;-83
2023/04/22 07:10:06;;;;;;;;;;;;;;;19.98;28.69;99769.84;4424061;32;34465;-83
2023/04/22 07:12:37;;;;;;;;;;;;;;;19.76;29.74;99772.63;4438684;32;34738;-83
2023/04/22 07:15:14;;;;;;;;;;;;;;;19.65;30.90;99782.38;4445997;32;32035;-83
2023/04/22 07:17:45;;;;;;;;;;;;;;;19.37;29.94;99773.03;4419486;32;34195;-84
2023/04/22 07:20:14;;;;;;;;;;;;;;;19.74;30.69;99775.41;4440471;32;34485;-84
2023/04/22 07:22:42;;;;;;;;;;;;;;;19.71;30.79;99775.69;4426788;32;34676;-84
2023/04/22 07:25:11;;;;;;;;;;;;;;;19.59;29.74;99776.62;4441765;32;33576;-84
2023/04/22 07:27:42;;;;;;;;;;;;;;;20.36;29.37;99776.50;4436898;32;33124;-84
2023/04/22 07:30:12;;;;;;;;;;;;;;;19.96;28.39;99779.84;4429496;32;33262;-84
2023/04/22 07:32:43;;;;;;;;;;;;;;;19.87;28.56;99776.09;4439737;32;33694;-84
2023/04/22 07:35:14;;;;;;;;;;;;;;;20.34;26.12;99770.44;4429766;32;32215;-84
2023/04/22 07:37:48;;;;;;;;;;;;;;;20.44;27.00;99774.88;4439800;32;32858;-84
2023/04/22 07:40:20;;;;;;;;;;;;;;;20.47;26.85;99773.81;4430903;32;32762;-85
2023/04/22 07:42:51;;;;;;;;;;;;;;;20.58;25.82;99771.03;4416050;32;33559;-85
2023/04/22 07:45:22;;;;;;;;;;;;;;;19.95;25.55;99762.09;4427949;32;33266;-85
2023/04/22 07:47:50;;;;;;;;;;;;;;;20.35;25.76;99774.81;4442970;32;34744;-85
2023/04/22 07:50:32;;;;;;;;;;;;;;;20.87;26.47;99770.38;4440289;32;34981;-85
2023/04/22 07:53:09;;;;;;;;;;;;;;;21.17;25.41;99764.13;4423977;32;34210;-84
2023/04/22 07:55:41;;;;;;;;;;;;;;;21.32;25.21;99761.97;4437764;32;32278;-85
2023/04/22 07:58:09;;;;;;;;;;;;;;;21.45;25.06;99765.25;4425227;32;33370;-85
2023/04/22 08:00:38;;;;;;;;;;;;;;;21.40;24.76;99764.81;4440849;32;34193;-85
2023/04/22 08:03:06;;;;;;;;;;;;;;;21.75;24.47;99764.34;4429595;32;32885;-85
2023/04/22 08:05:35;;;;;;;;;;;;;;;21.85;24.31;99764.34;4439035;32;32789;-85
2023/04/22 08:08:09;;;;;;;;;;;;;;;21.75;24.72;99760.81;4423531;32;32835;-85
2023/04/22 08:10:39;;;;;;;;;;;;;;;21.78;23.81;99765.88;4429705;32;34185;-85
2023/04/22 08:13:08;;;;;;;;;;;;;;;22.07;23.80;99761.38;4409161;32;1000061;-85
2023/04/22 08:15:43;;;;;;;;;;;;;;;21.86;22.53;99758.81;4420503;32;32960;-85
2023/04/22 08:18:14;;;;;;;;;;;;;;;22.31;23.69;99766.34;4436659;32;33692;-85
2023/04/22 08:20:43;;;;;;;;;;;;;;;22.09;23.23;99767.47;4436998;32;34196;-84
2023/04/22 08:23:17;;;;;;;;;;;;;;;22.16;22.86;99775.84;4439932;32;34920;-84
2023/04/22 08:25:45;;;;;;;;;;;;;;;21.99;23.89;99766.63;4442793;32;33143;-85
2023/04/22 08:28:14;;;;;;;;;;;;;;;22.10;24.17;99771.84;4441657;32;33827;-84
2023/04/22 08:30:44;;;;;;;;;;;;;;;22.31;23.89;99770.88;4439263;32;33877;-85
2023/04/22 08:33:18;;;;;;;;;;;;;;;22.31;23.13;99769.03;4418949;32;33206;-85
2023/04/22 08:35:46;;;;;;;;;;;;;;;22.73;23.13;99766.84;4434893;32;31943;-85
2023/04/22 08:38:14;;;;;;;;;;;;;;;22.59;23.85;99767.31;4426961;32;33286;-85
2023/04/22 08:40:44;;;;;;;;;;;;;;;22.93;22.26;99762.31;4438686;32;34860;-84
2023/04/22 08:43:13;;;;;;;;;;;;;;;22.92;23.20;99767.81;4441462;32;34002;-84
2023/04/22 08:45:53;;;;;;;;;;;;;;;22.69;24.49;99768.16;4416468;32;34109;-85
2023/04/22 08:48:28;;;;;;;;;;;;;;;21.99;24.61;99763.94;4422177;32;33384;-85
2023/04/22 08:51:02;;;;;;;;;;;;;;;22.53;23.53;99772.44;4432958;32;32609;-85
2023/04/22 08:53:30;;;;;;;;;;;;;;;22.33;23.75;99772.44;4428162;32;34145;-85
2023/04/22 08:56:04;;;;;;;;;;;;;;;22.65;23.64;99769.44;4438885;32;32867;-84
2023/04/22 08:58:41;;;;;;;;;;;;;;;22.98;24.57;99761.88;4439937;32;33516;-85
2023/04/22 09:01:09;;;;;;;;;;;;;;;22.83;23.66;99763.28;4439549;32;32860;-84
2023/04/22 09:03:38;;;;;;;;;;;;;;;23.24;23.16;99762.88;4442038;32;34082;-85
2023/04/22 09:08:42;;;;;;;;;;;;;;;23.26;23.52;99765.41;4431573;32;33291;-85
2023/04/22 09:11:10;;;;;;;;;;;;;;;22.93;24.03;99765.00;4411851;32;33607;-85
2023/04/22 09:16:17;;;;;;;;;;;;;;;23.16;23.52;99765.44;4425203;32;33696;-85
2023/04/22 09:18:46;;;;;;;;;;;;;;;22.99;24.96;99763.56;4412044;32;33897;-84
2023/04/22 09:21:26;;;;;;;;;;;;;;;23.32;24.01;99755.91;4412312;32;35935;-85
2023/04/22 09:24:01;;;;;;;;;;;;;;;22.87;25.45;99764.69;4434892;32;34842;-86
2023/04/22 09:26:31;;;;;;;;;;;;;;;22.94;24.79;99760.47;4426569;32;32930;-85
2023/04/22 09:29:08;;;;;;;;;;;;;;;23.11;23.75;99767.75;4437265;32;34652;-84
2023/04/22 09:31:40;;;;;;;;;;;;;;;23.40;23.06;99755.97;4432141;32;34647;-84
2023/04/22 09:34:09;;;;;;;;;;;;;;;23.97;23.87;99748.53;4431025;32;34512;-84
2023/04/22 09:36:39;;;;;;;;;;;;;;;24.08;23.79;99748.31;4439253;32;33116;-84
2023/04/22 09:39:08;;;;;;;;;;;;;;;23.66;24.13;99750.78;4433297;32;34102;-84
2023/04/22 09:41:47;;;;;;;;;;;;;;;23.06;23.81;99745.78;4426257;32;32881;-84
2023/04/22 09:44:20;;;;;;;;;;;;;;;23.12;23.92;99756.00;4426899;32;33883;-84
2023/04/22 09:46:50;;;;;;;;;;;;;;;23.53;23.51;99745.69;4425535;32;31762;-84
2023/04/22 09:49:19;;;;;;;;;;;;;;;24.25;23.00;99742.03;4400862;32;34113;-84
2023/04/22 09:51:49;;;;;;;;;;;;;;;23.96;23.59;99739.59;4420722;32;33243;-84
2023/04/22 09:54:17;;;;;;;;;;;;;;;23.83;22.83;99739.12;4435750;32;34096;-83
2023/04/22 09:56:52;;;;;;;;;;;;;;;23.86;23.44;99729.91;4441997;32;32612;-84
2023/04/22 09:59:22;;;;;;;;;;;;;;;23.23;23.78;99733.41;4426049;32;34801;-84
2023/04/22 10:02:02;;;;;;;;;;;;;;;23.58;23.20;99721.84;4424266;32;34105;-85
2023/04/22 10:04:33;;;;;;;;;;;;;;;23.32;23.44;99715.50;4427642;32;34943;-84
2023/04/22 10:07:02;;;;;;;;;;;;;;;22.98;23.76;99730.41;4413525;32;32133;-85
2023/04/22 10:09:38;;;;;;;;;;;;;;;23.55;25.37;99710.50;4427227;32;35805;-84
2023/04/22 10:12:15;;;;;;;;;;;;;;;24.47;24.07;99704.81;4415117;32;34969;-84
2023/04/22 10:14:49;;;;;;;;;;;;;;;24.34;22.85;99709.72;4424384;32;34799;-84
2023/04/22 10:17:24;;;;;;;;;;;;;;;24.10;23.08;99708.53;4402564;32;33095;-84
2023/04/22 10:19:57;;;;;;;;;;;;;;;23.82;23.15;99707.78;4414641;32;33670;-84
2023/04/22 10:22:32;;;;;;;;;;;;;;;24.03;23.01;99712.88;4427649;32;34263;-83
2023/04/22 10:25:08;;;;;;;;;;;;;;;23.98;23.11;99709.81;4417000;32;33265;-84
2023/04/22 10:27:37;;;;;;;;;;;;;;;23.98;23.37;99707.09;4424273;32;33109;-84
2023/04/22 10:30:09;;;;;;;;;;;;;;;24.64;22.34;99703.91;4410161;32;34761;-84
2023/04/22 10:32:40;;;;;;;;;;;;;;;24.97;22.95;99694.13;4422236;32;34177;-84
2023/04/22 10:35:11;;;;;;;;;;;;;;;25.35;22.45;99693.78;4423449;32;34011;-84
2023/04/22 10:37:47;;;;;;;;;;;;;;;25.64;21.10;99686.09;4412845;32;34699;-83
2023/04/22 10:40:16;;;;;;;;;;;;;;;25.25;21.26;99688.50;4414213;32;34620;-83
2023/04/22 10:42:49;;;;;;;;;;;;;;;24.74;21.39;99691.16;4424202;32;34432;-84
2023/04/22 10:45:20;;;;;;;;;;;;;;;24.80;21.82;99683.41;4411932;32;34148;-83
2023/04/22 10:47:48;;;;;;;;;;;;;;;24.84;21.78;99687.47;4427295;32;33279;-84
2023/04/22 10:50:26;;;;;;;;;;;;;;;24.70;21.81;99687.06;4394171;32;33796;-84
2023/04/22 10:52:57;;;;;;;;;;;;;;;24.80;21.49;99686.94;4401710;32;33476;-84
2023/04/22 10:55:28;;;;;;;;;;;;;;;24.27;21.44;99696.87;4415962;32;34720;-84
2023/04/22 10:58:02;;;;;;;;;;;;;;;24.13;22.33;99689.34;4418806;32;33015;-84
2023/04/22 11:00:40;;;;;;;;;;;;;;;23.90;22.38;99688.16;4414104;32;33744;-84
2023/04/22 11:03:25;;;;;;;;;;;;;;;24.16;22.30;99682.78;4405848;32;33906;-84
2023/04/22 11:06:14;;;;;;;;;;;;;;;24.07;21.82;99684.59;4434036;32;35213;-84
2023/04/22 11:08:46;;;;;;;;;;;;;;;24.11;21.93;99691.34;4430352;32;32168;-84
2023/04/22 11:11:18;;;;;;;;;;;;;;;23.99;23.58;99687.22;4437097;32;33529;-84
2023/04/22 11:13:50;;;;;;;;;;;;;;;23.61;24.80;99694.59;4442365;32;33473;-84
2023/04/22 11:16:20;;;;;;;;;;;;;;;23.90;23.97;99690.84;4444640;32;34107;-84
2023/04/22 11:18:56;;;;;;;;;;;;;;;23.87;24.34;99689.28;4441788;32;32542;-84
2023/04/22 11:21:28;;;;;;;;;;;;;;;24.17;23.78;99689.91;4441910;32;34359;-84
2023/04/22 11:24:01;;;;;;;;;;;;;;;24.02;22.78;99682.38;4436439;32;33717;-84
2023/04/22 11:26:35;;;;;;;;;;;;;;;24.09;23.32;99684.44;4442883;32;33593;-84
2023/04/22 11:29:02;;;;;;;;;;;;;;;23.85;23.46;99685.06;4437594;32;32453;-84
2023/04/22 11:31:32;;;;;;;;;;;;;;;23.59;23.55;99683.09;4445167;32;34113;-84
2023/04/22 11:34:02;;;;;;;;;;;;;;;23.64;25.35;99691.62;4442783;32;33463;-84
2023/04/22 11:36:31;;;;;;;;;;;;;;;23.97;23.94;99686.50;4445554;32;34411;-84
2023/04/22 11:39:00;;;;;;;;;;;;;;;23.96;24.63;99684.81;4442149;32;34130;-84
2023/04/22 11:41:30;;;;;;;;;;;;;;;23.80;23.18;99688.22;4444917;32;34866;-84
2023/04/22 11:44:01;;;;;;;;;;;;;;;23.77;24.07;99692.06;4443576;32;34218;-84
2023/04/22 11:46:39;;;;;;;;;;;;;;;23.31;24.31;99689.53;4445964;32;34187;-84
2023/04/22 11:49:16;;;;;;;;;;;;;;;23.61;24.15;99688.34;4441541;32;32295;-84
2023/04/22 11:51:55;;;;;;;;;;;;;;;23.80;23.72;99687.38;4444572;32;34337;-84
2023/04/22 11:54:37;;;;;;;;;;;;;;;24.12;23.61;99679.56;4444447;32;33452;-84
2023/04/22 11:57:07;;;;;;;;;;;;;;;24.50;23.40;99669.41;4443774;32;32702;-84
2023/04/22 11:59:42;;;;;;;;;;;;;;;24.20;22.81;99668.81;4440377;32;32293;-83
2023/04/22 12:02:11;;;;;;;;;;;;;;;24.53;22.85;99664.53;4431549;32;33026;-84
2023/04/22 12:04:40;;;;;;;;;;;;;;;24.49;22.41;99667.69;4442251;32;33926;-84
2023/04/22 12:07:15;;;;;;;;;;;;;;;24.27;22.92;99669.06;4428939;32;32944;-84
2023/04/22 12:09:43;;;;;;;;;;;;;;;23.80;22.98;99671.22;4444426;32;32520;-84
2023/04/22 12:12:11;;;;;;;;;;;;;;;24.09;22.97;99666.37;4444743;32;33857;-84
2023/04/22 12:14:44;;;;;;;;;;;;;;;23.97;22.96;99662.22;4444599;32;33576;-84
2023/04/22 12:17:21;;;;;;;;;;;;;;;24.36;22.31;99662.75;4443174;32;34670;-84
2023/04/22 12:19:54;;;;;;;;;;;;;;;23.97;23.89;99659.53;4411207;32;32022;-85
2023/04/22 12:22:25;;;;;;;;;;;;;;;23.77;23.87;99661.56;4441991;32;33874;-84
2023/04/22 12:24:59;;;;;;;;;;;;;;;23.78;23.89;99663.25;4441088;32;34052;-84
2023/04/22 12:27:31;;;;;;;;;;;;;;;23.75;23.08;99664.44;4429206;32;33498;-84
2023/04/22 12:30:00;;;;;;;;;;;;;;;24.00;23.38;99660.09;4444573;32;32804;-84
2023/04/22 12:32:37;;;;;;;;;;;;;;;24.12;24.37;99658.00;4438613;32;33950;-84
2023/04/22 12:35:08;;;;;;;;;;;;;;;24.26;23.86;99652.03;4422162;32;34362;-84
2023/04/22 12:37:40;;;;;;;;;;;;;;;23.91;23.51;99657.47;4442616;32;32943;-83
2023/04/22 12:40:08;;;;;;;;;;;;;;;24.12;23.76;99652.59;4441213;32;32267;-83
2023/04/22 12:42:42;;;;;;;;;;;;;;;23.74;23.93;99657.34;4442805;32;33004;-83
2023/04/22 12:45:13;;;;;;;;;;;;;;;23.73;23.82;99652.09;4441685;32;32327;-83
2023/04/22 12:47:43;;;;;;;;;;;;;;;23.73;23.68;99644.84;4429591;32;34257;-83
2023/04/22 12:50:15;;;;;;;;;;;;;;;23.48;24.25;99651.84;4416976;32;33393;-83
2023/04/22 12:52:44;;;;;;;;;;;;;;;23.74;24.38;99638.47;4441886;32;34167;-83
2023/04/22 12:55:20;;;;;;;;;;;;;;;24.26;23.97;99649.34;4434734;32;33805;-83
2023/04/22 12:57:55;;;;;;;;;;;;;;;24.53;22.10;99631.28;4443085;32;32948;-84
2023/04/22 13:00:24;;;;;;;;;;;;;;;24.98;22.08;99635.56;4445807;32;33738;-84
2023/04/22 13:03:00;;;;;;;;;;;;;;;24.28;22.10;99630.28;4427880;32;31828;-83
2023/04/22 13:05:30;;;;;;;;;;;;;;;24.65;22.88;99629.16;4440691;32;34788;-84
2023/04/22 13:07:58;;;;;;;;;;;;;;;24.51;23.09;99622.50;4429540;32;32285;-84
2023/04/22 13:10:34;;;;;;;;;;;;;;;24.63;23.91;99621.22;4446422;32;33070;-84